sensor_id;sensor_type;location;lat;lon;timestamp;P1;durP1;ratioP1;P2;durP2;ratioP2
68449;SDS011;67758;39.572;2.652;2023-12-22T00:00:30;5.03;;;0.63;;
68449;SDS011;67758;39.572;2.652;2023-12-22T00:03:17;4.45;;;0.43;;
68449;SDS011;67758;39.572;2.652;2023-12-22T00:06:01;4.10;;;0.30;;
68449;SDS011;67758;39.572;2.652;2023-12-22T00:08:46;3.90;;;0.57;;
68449;SDS011;67758;39.572;2.652;2023-12-22T00:11:30;2.85;;;0.30;;
68449;SDS011;67758;39.572;2.652;2023-12-22T00:14:15;3.42;;;0.20;;
68449;SDS011;67758;39.572;2.652;2023-12-22T00:17:00;3.97;;;0.30;;
68449;SDS011;67758;39.572;2.652;2023-12-22T00:19:45;2.60;;;0.30;;
68449;SDS011;67758;39.572;2.652;2023-12-22T00:22:33;4.18;;;0.22;;
68449;SDS011;67758;39.572;2.652;2023-12-22T00:25:21;4.75;;;0.35;;
68449;SDS011;67758;39.572;2.652;2023-12-22T00:28:07;5.75;;;0.40;;
68449;SDS011;67758;39.572;2.652;2023-12-22T00:31:22;2.08;;;0.20;;
68449;SDS011;67758;39.572;2.652;2023-12-22T00:34:28;1.87;;;0.20;;
68449;SDS011;67758;39.572;2.652;2023-12-22T00:37:14;3.20;;;0.28;;
68449;SDS011;67758;39.572;2.652;2023-12-22T00:40:01;3.35;;;0.30;;
68449;SDS011;67758;39.572;2.652;2023-12-22T00:42:51;2.95;;;0.30;;
68449;SDS011;67758;39.572;2.652;2023-12-22T00:45:39;2.65;;;0.30;;
68449;SDS011;67758;39.572;2.652;2023-12-22T00:48:29;2.60;;;0.30;;
68449;SDS011;67758;39.572;2.652;2023-12-22T00:51:13;2.80;;;0.30;;
68449;SDS011;67758;39.572;2.652;2023-12-22T00:54:22;4.70;;;0.30;;
68449;SDS011;67758;39.572;2.652;2023-12-22T00:57:25;3.53;;;0.30;;
68449;SDS011;67758;39.572;2.652;2023-12-22T01:00:21;2.78;;;0.25;;
68449;SDS011;67758;39.572;2.652;2023-12-22T01:03:06;5.17;;;0.20;;
68449;SDS011;67758;39.572;2.652;2023-12-22T01:05:50;2.65;;;0.38;;
68449;SDS011;67758;39.572;2.652;2023-12-22T01:08:36;2.72;;;0.30;;
68449;SDS011;67758;39.572;2.652;2023-12-22T01:11:21;3.25;;;0.30;;
68449;SDS011;67758;39.572;2.652;2023-12-22T01:14:05;3.35;;;0.30;;
68449;SDS011;67758;39.572;2.652;2023-12-22T01:16:58;2.87;;;0.30;;
68449;SDS011;67758;39.572;2.652;2023-12-22T01:19:46;3.45;;;0.30;;
68449;SDS011;67758;39.572;2.652;2023-12-22T01:22:30;3.60;;;0.63;;
68449;SDS011;67758;39.572;2.652;2023-12-22T01:25:22;4.22;;;0.30;;
68449;SDS011;67758;39.572;2.652;2023-12-22T01:28:07;4.10;;;0.40;;
68449;SDS011;67758;39.572;2.652;2023-12-22T01:31:03;3.28;;;0.68;;
68449;SDS011;67758;39.572;2.652;2023-12-22T01:33:47;4.38;;;0.40;;
68449;SDS011;67758;39.572;2.652;2023-12-22T01:36:36;3.95;;;0.40;;
68449;SDS011;67758;39.572;2.652;2023-12-22T01:39:20;3.05;;;0.30;;
68449;SDS011;67758;39.572;2.652;2023-12-22T01:42:05;2.10;;;0.30;;
68449;SDS011;67758;39.572;2.652;2023-12-22T01:44:49;4.20;;;0.40;;
68449;SDS011;67758;39.572;2.652;2023-12-22T01:47:35;3.15;;;0.47;;
68449;SDS011;67758;39.572;2.652;2023-12-22T01:50:20;3.22;;;0.45;;
68449;SDS011;67758;39.572;2.652;2023-12-22T01:53:05;3.13;;;0.32;;
68449;SDS011;67758;39.572;2.652;2023-12-22T01:55:51;4.30;;;0.40;;
68449;SDS011;67758;39.572;2.652;2023-12-22T01:58:38;2.97;;;0.30;;
68449;SDS011;67758;39.572;2.652;2023-12-22T02:01:23;2.92;;;0.50;;
68449;SDS011;67758;39.572;2.652;2023-12-22T02:04:08;2.15;;;0.30;;
68449;SDS011;67758;39.572;2.652;2023-12-22T02:06:58;3.33;;;0.20;;
68449;SDS011;67758;39.572;2.652;2023-12-22T02:09:53;3.17;;;0.20;;
68449;SDS011;67758;39.572;2.652;2023-12-22T02:12:37;3.10;;;0.30;;
68449;SDS011;67758;39.572;2.652;2023-12-22T02:15:22;4.50;;;0.30;;
68449;SDS011;67758;39.572;2.652;2023-12-22T02:18:39;4.50;;;0.55;;
68449;SDS011;67758;39.572;2.652;2023-12-22T02:22:05;1.52;;;0.20;;
68449;SDS011;67758;39.572;2.652;2023-12-22T02:25:05;3.42;;;0.30;;
68449;SDS011;67758;39.572;2.652;2023-12-22T02:28:22;3.72;;;0.47;;
68449;SDS011;67758;39.572;2.652;2023-12-22T02:31:51;3.97;;;0.20;;
68449;SDS011;67758;39.572;2.652;2023-12-22T02:35:20;1.92;;;0.20;;
68449;SDS011;67758;39.572;2.652;2023-12-22T02:38:43;4.05;;;0.40;;
68449;SDS011;67758;39.572;2.652;2023-12-22T02:41:30;2.47;;;0.30;;
68449;SDS011;67758;39.572;2.652;2023-12-22T02:44:42;2.73;;;0.27;;
68449;SDS011;67758;39.572;2.652;2023-12-22T02:47:38;1.75;;;0.30;;
68449;SDS011;67758;39.572;2.652;2023-12-22T02:51:25;1.40;;;0.13;;
68449;SDS011;67758;39.572;2.652;2023-12-22T02:54:24;2.33;;;0.20;;
68449;SDS011;67758;39.572;2.652;2023-12-22T03:04:01;1.70;;;0.10;;
68449;SDS011;67758;39.572;2.652;2023-12-22T03:07:00;3.45;;;0.30;;
68449;SDS011;67758;39.572;2.652;2023-12-22T03:09:45;3.35;;;0.20;;
68449;SDS011;67758;39.572;2.652;2023-12-22T03:12:29;5.63;;;0.30;;
68449;SDS011;67758;39.572;2.652;2023-12-22T03:15:23;1.53;;;0.20;;
68449;SDS011;67758;39.572;2.652;2023-12-22T03:18:08;1.98;;;0.20;;
68449;SDS011;67758;39.572;2.652;2023-12-22T03:20:54;3.40;;;0.40;;
68449;SDS011;67758;39.572;2.652;2023-12-22T03:23:38;0.77;;;0.10;;
68449;SDS011;67758;39.572;2.652;2023-12-22T03:26:23;3.53;;;0.30;;
68449;SDS011;67758;39.572;2.652;2023-12-22T03:29:12;0.83;;;0.10;;
68449;SDS011;67758;39.572;2.652;2023-12-22T03:32:11;2.58;;;0.25;;
68449;SDS011;67758;39.572;2.652;2023-12-22T03:34:55;5.05;;;0.40;;
68449;SDS011;67758;39.572;2.652;2023-12-22T03:37:40;4.28;;;0.30;;
68449;SDS011;67758;39.572;2.652;2023-12-22T03:40:23;1.98;;;0.20;;
68449;SDS011;67758;39.572;2.652;2023-12-22T03:43:07;3.83;;;0.30;;
68449;SDS011;67758;39.572;2.652;2023-12-22T03:45:51;3.40;;;0.30;;
68449;SDS011;67758;39.572;2.652;2023-12-22T03:48:36;3.95;;;0.20;;
68449;SDS011;67758;39.572;2.652;2023-12-22T03:51:21;3.22;;;0.20;;
68449;SDS011;67758;39.572;2.652;2023-12-22T03:54:05;5.70;;;0.30;;
68449;SDS011;67758;39.572;2.652;2023-12-22T03:56:49;3.13;;;0.40;;
68449;SDS011;67758;39.572;2.652;2023-12-22T03:59:33;4.50;;;0.47;;
68449;SDS011;67758;39.572;2.652;2023-12-22T04:02:17;6.55;;;0.30;;
68449;SDS011;67758;39.572;2.652;2023-12-22T04:05:01;7.95;;;0.40;;
68449;SDS011;67758;39.572;2.652;2023-12-22T04:07:46;3.95;;;0.20;;
68449;SDS011;67758;39.572;2.652;2023-12-22T04:10:30;5.33;;;0.40;;
68449;SDS011;67758;39.572;2.652;2023-12-22T04:13:15;4.13;;;0.30;;
68449;SDS011;67758;39.572;2.652;2023-12-22T04:15:59;5.05;;;0.65;;
68449;SDS011;67758;39.572;2.652;2023-12-22T04:18:44;6.95;;;0.47;;
68449;SDS011;67758;39.572;2.652;2023-12-22T04:21:28;6.05;;;0.38;;
68449;SDS011;67758;39.572;2.652;2023-12-22T04:24:15;4.17;;;0.23;;
68449;SDS011;67758;39.572;2.652;2023-12-22T04:27:00;4.57;;;0.40;;
68449;SDS011;67758;39.572;2.652;2023-12-22T04:33:06;3.88;;;0.80;;
68449;SDS011;67758;39.572;2.652;2023-12-22T04:35:59;6.05;;;0.40;;
68449;SDS011;67758;39.572;2.652;2023-12-22T04:39:12;7.60;;;0.40;;
68449;SDS011;67758;39.572;2.652;2023-12-22T04:41:56;10.25;;;0.70;;
68449;SDS011;67758;39.572;2.652;2023-12-22T04:44:47;7.18;;;0.70;;
68449;SDS011;67758;39.572;2.652;2023-12-22T04:47:37;9.98;;;0.80;;
68449;SDS011;67758;39.572;2.652;2023-12-22T04:50:30;6.68;;;0.70;;
68449;SDS011;67758;39.572;2.652;2023-12-22T05:00:03;10.20;;;0.98;;
68449;SDS011;67758;39.572;2.652;2023-12-22T05:02:53;13.23;;;1.42;;
68449;SDS011;67758;39.572;2.652;2023-12-22T05:05:37;10.20;;;0.98;;
68449;SDS011;67758;39.572;2.652;2023-12-22T05:08:23;12.70;;;1.10;;
68449;SDS011;67758;39.572;2.652;2023-12-22T05:11:30;9.85;;;1.17;;
68449;SDS011;67758;39.572;2.652;2023-12-22T05:14:14;11.95;;;1.30;;
68449;SDS011;67758;39.572;2.652;2023-12-22T05:16:59;7.63;;;1.00;;
68449;SDS011;67758;39.572;2.652;2023-12-22T05:19:47;7.65;;;1.50;;
68449;SDS011;67758;39.572;2.652;2023-12-22T05:22:36;12.07;;;1.47;;
68449;SDS011;67758;39.572;2.652;2023-12-22T05:25:34;7.35;;;1.08;;
68449;SDS011;67758;39.572;2.652;2023-12-22T05:28:21;5.80;;;0.90;;
68449;SDS011;67758;39.572;2.652;2023-12-22T05:31:08;9.63;;;0.80;;
68449;SDS011;67758;39.572;2.652;2023-12-22T05:33:54;8.10;;;0.80;;
68449;SDS011;67758;39.572;2.652;2023-12-22T05:36:38;12.57;;;1.40;;
68449;SDS011;67758;39.572;2.652;2023-12-22T05:39:22;13.32;;;1.25;;
68449;SDS011;67758;39.572;2.652;2023-12-22T05:42:09;9.02;;;1.10;;
68449;SDS011;67758;39.572;2.652;2023-12-22T05:44:54;14.48;;;2.03;;
68449;SDS011;67758;39.572;2.652;2023-12-22T05:47:38;12.23;;;1.15;;
68449;SDS011;67758;39.572;2.652;2023-12-22T05:50:29;16.87;;;1.50;;
68449;SDS011;67758;39.572;2.652;2023-12-22T05:53:17;10.07;;;1.42;;
68449;SDS011;67758;39.572;2.652;2023-12-22T05:56:27;11.27;;;0.80;;
68449;SDS011;67758;39.572;2.652;2023-12-22T05:59:10;10.50;;;1.17;;
68449;SDS011;67758;39.572;2.652;2023-12-22T06:01:54;9.20;;;0.90;;
68449;SDS011;67758;39.572;2.652;2023-12-22T06:04:40;10.97;;;1.37;;
68449;SDS011;67758;39.572;2.652;2023-12-22T06:07:26;19.50;;;1.52;;
68449;SDS011;67758;39.572;2.652;2023-12-22T06:10:10;13.65;;;1.38;;
68449;SDS011;67758;39.572;2.652;2023-12-22T06:13:16;10.73;;;1.23;;
68449;SDS011;67758;39.572;2.652;2023-12-22T06:16:22;10.27;;;1.52;;
68449;SDS011;67758;39.572;2.652;2023-12-22T06:19:08;16.67;;;1.23;;
68449;SDS011;67758;39.572;2.652;2023-12-22T06:22:04;13.52;;;1.95;;
68449;SDS011;67758;39.572;2.652;2023-12-22T06:25:09;12.52;;;1.35;;
68449;SDS011;67758;39.572;2.652;2023-12-22T06:27:54;14.18;;;1.45;;
68449;SDS011;67758;39.572;2.652;2023-12-22T06:30:42;20.67;;;2.38;;
68449;SDS011;67758;39.572;2.652;2023-12-22T06:33:27;13.43;;;1.73;;
68449;SDS011;67758;39.572;2.652;2023-12-22T06:36:23;16.77;;;1.88;;
68449;SDS011;67758;39.572;2.652;2023-12-22T06:39:19;14.30;;;1.20;;
68449;SDS011;67758;39.572;2.652;2023-12-22T06:42:05;8.45;;;0.93;;
68449;SDS011;67758;39.572;2.652;2023-12-22T06:44:54;15.82;;;2.15;;
68449;SDS011;67758;39.572;2.652;2023-12-22T06:47:38;12.80;;;1.37;;
68449;SDS011;67758;39.572;2.652;2023-12-22T06:50:25;8.60;;;1.35;;
68449;SDS011;67758;39.572;2.652;2023-12-22T06:53:38;14.90;;;1.70;;
68449;SDS011;67758;39.572;2.652;2023-12-22T06:56:35;11.15;;;1.35;;
68449;SDS011;67758;39.572;2.652;2023-12-22T06:59:20;15.70;;;1.58;;
68449;SDS011;67758;39.572;2.652;2023-12-22T07:02:06;15.50;;;1.30;;
68449;SDS011;67758;39.572;2.652;2023-12-22T07:08:08;16.00;;;1.42;;
68449;SDS011;67758;39.572;2.652;2023-12-22T07:11:18;19.05;;;2.28;;
68449;SDS011;67758;39.572;2.652;2023-12-22T07:14:31;19.17;;;1.55;;
68449;SDS011;67758;39.572;2.652;2023-12-22T07:17:17;11.37;;;1.20;;
68449;SDS011;67758;39.572;2.652;2023-12-22T07:20:08;18.65;;;1.83;;
68449;SDS011;67758;39.572;2.652;2023-12-22T07:23:06;15.35;;;1.10;;
68449;SDS011;67758;39.572;2.652;2023-12-22T07:26:30;14.88;;;1.58;;
68449;SDS011;67758;39.572;2.652;2023-12-22T07:29:15;15.32;;;1.33;;
68449;SDS011;67758;39.572;2.652;2023-12-22T07:31:59;16.27;;;2.10;;
68449;SDS011;67758;39.572;2.652;2023-12-22T07:34:45;11.80;;;1.75;;
68449;SDS011;67758;39.572;2.652;2023-12-22T07:37:47;16.33;;;1.65;;
68449;SDS011;67758;39.572;2.652;2023-12-22T07:40:57;13.23;;;1.40;;
68449;SDS011;67758;39.572;2.652;2023-12-22T07:47:18;14.97;;;1.40;;
68449;SDS011;67758;39.572;2.652;2023-12-22T07:50:04;13.77;;;1.42;;
68449;SDS011;67758;39.572;2.652;2023-12-22T07:52:53;15.45;;;2.17;;
68449;SDS011;67758;39.572;2.652;2023-12-22T07:55:38;15.15;;;1.60;;
68449;SDS011;67758;39.572;2.652;2023-12-22T07:58:28;12.68;;;1.17;;
68449;SDS011;67758;39.572;2.652;2023-12-22T08:01:18;18.00;;;2.13;;
68449;SDS011;67758;39.572;2.652;2023-12-22T08:04:03;13.55;;;1.70;;
68449;SDS011;67758;39.572;2.652;2023-12-22T08:07:07;11.25;;;1.27;;
68449;SDS011;67758;39.572;2.652;2023-12-22T08:10:22;14.55;;;1.70;;
68449;SDS011;67758;39.572;2.652;2023-12-22T08:13:44;13.40;;;1.70;;
68449;SDS011;67758;39.572;2.652;2023-12-22T08:16:30;14.43;;;1.70;;
68449;SDS011;67758;39.572;2.652;2023-12-22T08:19:36;20.13;;;2.22;;
68449;SDS011;67758;39.572;2.652;2023-12-22T08:22:34;15.90;;;2.10;;
68449;SDS011;67758;39.572;2.652;2023-12-22T08:25:27;11.77;;;1.52;;
68449;SDS011;67758;39.572;2.652;2023-12-22T08:28:11;18.13;;;1.75;;
68449;SDS011;67758;39.572;2.652;2023-12-22T08:31:08;15.03;;;1.87;;
68449;SDS011;67758;39.572;2.652;2023-12-22T08:33:54;14.73;;;1.98;;
68449;SDS011;67758;39.572;2.652;2023-12-22T08:36:40;12.82;;;1.83;;
68449;SDS011;67758;39.572;2.652;2023-12-22T08:39:27;16.42;;;1.50;;
68449;SDS011;67758;39.572;2.652;2023-12-22T08:42:18;18.85;;;1.90;;
68449;SDS011;67758;39.572;2.652;2023-12-22T08:45:04;16.23;;;2.07;;
68449;SDS011;67758;39.572;2.652;2023-12-22T08:47:57;11.77;;;1.20;;
68449;SDS011;67758;39.572;2.652;2023-12-22T08:50:54;16.15;;;2.53;;
68449;SDS011;67758;39.572;2.652;2023-12-22T08:54:00;16.80;;;2.60;;
68449;SDS011;67758;39.572;2.652;2023-12-22T08:56:51;10.10;;;1.02;;
68449;SDS011;67758;39.572;2.652;2023-12-22T09:00:02;16.42;;;2.00;;
68449;SDS011;67758;39.572;2.652;2023-12-22T09:02:58;17.60;;;1.60;;
68449;SDS011;67758;39.572;2.652;2023-12-22T09:05:46;19.15;;;1.67;;
68449;SDS011;67758;39.572;2.652;2023-12-22T09:08:36;9.07;;;1.15;;
68449;SDS011;67758;39.572;2.652;2023-12-22T09:11:25;8.75;;;1.50;;
68449;SDS011;67758;39.572;2.652;2023-12-22T09:14:11;17.20;;;2.00;;
68449;SDS011;67758;39.572;2.652;2023-12-22T09:16:56;17.00;;;1.98;;
68449;SDS011;67758;39.572;2.652;2023-12-22T09:19:40;20.80;;;2.33;;
68449;SDS011;67758;39.572;2.652;2023-12-22T09:22:27;15.63;;;1.98;;
68449;SDS011;67758;39.572;2.652;2023-12-22T09:25:14;13.93;;;1.50;;
68449;SDS011;67758;39.572;2.652;2023-12-22T09:28:23;11.77;;;1.90;;
68449;SDS011;67758;39.572;2.652;2023-12-22T09:31:28;15.30;;;1.90;;
68449;SDS011;67758;39.572;2.652;2023-12-22T09:34:18;15.50;;;1.90;;
68449;SDS011;67758;39.572;2.652;2023-12-22T09:37:02;9.98;;;1.80;;
68449;SDS011;67758;39.572;2.652;2023-12-22T09:39:47;12.60;;;1.70;;
68449;SDS011;67758;39.572;2.652;2023-12-22T09:42:32;10.73;;;1.37;;
68449;SDS011;67758;39.572;2.652;2023-12-22T09:45:17;14.45;;;1.58;;
68449;SDS011;67758;39.572;2.652;2023-12-22T09:48:08;9.43;;;1.10;;
68449;SDS011;67758;39.572;2.652;2023-12-22T09:51:13;13.05;;;1.50;;
68449;SDS011;67758;39.572;2.652;2023-12-22T09:54:06;14.98;;;2.30;;
68449;SDS011;67758;39.572;2.652;2023-12-22T09:57:29;8.73;;;0.98;;
68449;SDS011;67758;39.572;2.652;2023-12-22T10:00:15;17.33;;;2.15;;
68449;SDS011;67758;39.572;2.652;2023-12-22T10:03:05;15.30;;;1.38;;
68449;SDS011;67758;39.572;2.652;2023-12-22T10:06:17;11.60;;;1.67;;
68449;SDS011;67758;39.572;2.652;2023-12-22T10:09:05;12.32;;;1.85;;
68449;SDS011;67758;39.572;2.652;2023-12-22T10:11:58;10.40;;;1.40;;
68449;SDS011;67758;39.572;2.652;2023-12-22T10:14:48;16.00;;;1.38;;
68449;SDS011;67758;39.572;2.652;2023-12-22T10:17:40;9.10;;;1.60;;
68449;SDS011;67758;39.572;2.652;2023-12-22T10:20:26;9.13;;;1.35;;
68449;SDS011;67758;39.572;2.652;2023-12-22T10:23:16;12.38;;;1.60;;
68449;SDS011;67758;39.572;2.652;2023-12-22T10:26:28;16.80;;;1.90;;
68449;SDS011;67758;39.572;2.652;2023-12-22T10:32:34;11.85;;;2.25;;
68449;SDS011;67758;39.572;2.652;2023-12-22T10:35:41;11.85;;;1.45;;
68449;SDS011;67758;39.572;2.652;2023-12-22T10:38:41;9.80;;;1.67;;
68449;SDS011;67758;39.572;2.652;2023-12-22T10:41:59;12.68;;;2.15;;
68449;SDS011;67758;39.572;2.652;2023-12-22T10:44:47;13.73;;;1.27;;
68449;SDS011;67758;39.572;2.652;2023-12-22T10:47:33;17.73;;;1.95;;
68449;SDS011;67758;39.572;2.652;2023-12-22T10:50:18;11.00;;;2.10;;
68449;SDS011;67758;39.572;2.652;2023-12-22T10:53:12;15.05;;;2.42;;
68449;SDS011;67758;39.572;2.652;2023-12-22T10:56:28;14.40;;;2.20;;
68449;SDS011;67758;39.572;2.652;2023-12-22T10:59:18;9.95;;;1.48;;
68449;SDS011;67758;39.572;2.652;2023-12-22T11:02:06;11.90;;;1.95;;
68449;SDS011;67758;39.572;2.652;2023-12-22T11:04:56;10.95;;;2.17;;
68449;SDS011;67758;39.572;2.652;2023-12-22T11:07:50;12.93;;;2.60;;
68449;SDS011;67758;39.572;2.652;2023-12-22T11:10:42;14.80;;;2.30;;
68449;SDS011;67758;39.572;2.652;2023-12-22T11:13:40;12.07;;;2.10;;
68449;SDS011;67758;39.572;2.652;2023-12-22T11:16:43;7.93;;;1.25;;
68449;SDS011;67758;39.572;2.652;2023-12-22T11:19:41;13.10;;;2.58;;
68449;SDS011;67758;39.572;2.652;2023-12-22T11:22:50;13.38;;;2.40;;
68449;SDS011;67758;39.572;2.652;2023-12-22T11:29:01;11.52;;;2.28;;
68449;SDS011;67758;39.572;2.652;2023-12-22T11:32:04;7.60;;;1.67;;
68449;SDS011;67758;39.572;2.652;2023-12-22T11:34:56;7.78;;;1.65;;
68449;SDS011;67758;39.572;2.652;2023-12-22T11:37:47;13.05;;;2.05;;
68449;SDS011;67758;39.572;2.652;2023-12-22T11:40:35;10.73;;;1.92;;
68449;SDS011;67758;39.572;2.652;2023-12-22T11:43:26;10.70;;;2.03;;
68449;SDS011;67758;39.572;2.652;2023-12-22T11:46:11;11.75;;;2.05;;
68449;SDS011;67758;39.572;2.652;2023-12-22T11:49:12;7.18;;;1.30;;
68449;SDS011;67758;39.572;2.652;2023-12-22T11:52:15;9.95;;;1.98;;
68449;SDS011;67758;39.572;2.652;2023-12-22T11:58:48;10.57;;;1.95;;
68449;SDS011;67758;39.572;2.652;2023-12-22T12:01:55;7.65;;;1.40;;
68449;SDS011;67758;39.572;2.652;2023-12-22T12:04:40;5.63;;;1.13;;
68449;SDS011;67758;39.572;2.652;2023-12-22T12:10:55;7.65;;;1.75;;
68449;SDS011;67758;39.572;2.652;2023-12-22T12:13:45;9.85;;;1.63;;
68449;SDS011;67758;39.572;2.652;2023-12-22T12:16:34;8.15;;;1.45;;
68449;SDS011;67758;39.572;2.652;2023-12-22T12:19:21;10.65;;;1.90;;
68449;SDS011;67758;39.572;2.652;2023-12-22T12:22:08;8.70;;;1.77;;
68449;SDS011;67758;39.572;2.652;2023-12-22T12:24:56;10.68;;;2.00;;
68449;SDS011;67758;39.572;2.652;2023-12-22T12:27:40;11.00;;;1.85;;
68449;SDS011;67758;39.572;2.652;2023-12-22T12:30:27;5.90;;;1.35;;
68449;SDS011;67758;39.572;2.652;2023-12-22T12:33:14;11.45;;;2.63;;
68449;SDS011;67758;39.572;2.652;2023-12-22T12:36:03;11.70;;;2.10;;
68449;SDS011;67758;39.572;2.652;2023-12-22T12:39:06;5.43;;;1.10;;
68449;SDS011;67758;39.572;2.652;2023-12-22T12:41:53;5.43;;;0.93;;
68449;SDS011;67758;39.572;2.652;2023-12-22T12:44:44;7.78;;;1.38;;
68449;SDS011;67758;39.572;2.652;2023-12-22T12:47:59;6.95;;;1.20;;
68449;SDS011;67758;39.572;2.652;2023-12-22T12:50:48;3.90;;;0.80;;
68449;SDS011;67758;39.572;2.652;2023-12-22T12:53:38;7.18;;;1.10;;
68449;SDS011;67758;39.572;2.652;2023-12-22T12:56:53;6.78;;;1.00;;
68449;SDS011;67758;39.572;2.652;2023-12-22T12:59:50;8.45;;;1.38;;
68449;SDS011;67758;39.572;2.652;2023-12-22T13:03:04;5.97;;;1.58;;
68449;SDS011;67758;39.572;2.652;2023-12-22T13:06:04;8.57;;;1.10;;
68449;SDS011;67758;39.572;2.652;2023-12-22T13:09:30;4.30;;;0.77;;
68449;SDS011;67758;39.572;2.652;2023-12-22T13:12:36;6.15;;;0.70;;
68449;SDS011;67758;39.572;2.652;2023-12-22T13:15:26;5.95;;;0.73;;
68449;SDS011;67758;39.572;2.652;2023-12-22T13:18:10;5.07;;;0.80;;
68449;SDS011;67758;39.572;2.652;2023-12-22T13:20:56;6.22;;;0.95;;
68449;SDS011;67758;39.572;2.652;2023-12-22T13:27:01;7.07;;;0.80;;
68449;SDS011;67758;39.572;2.652;2023-12-22T13:29:49;4.07;;;0.65;;
68449;SDS011;67758;39.572;2.652;2023-12-22T13:33:10;7.43;;;1.08;;
68449;SDS011;67758;39.572;2.652;2023-12-22T13:36:21;12.00;;;1.75;;
68449;SDS011;67758;39.572;2.652;2023-12-22T13:39:07;7.28;;;1.38;;
68449;SDS011;67758;39.572;2.652;2023-12-22T13:41:56;6.20;;;1.20;;
68449;SDS011;67758;39.572;2.652;2023-12-22T13:44:43;6.55;;;0.80;;
68449;SDS011;67758;39.572;2.652;2023-12-22T13:47:33;6.72;;;1.05;;
68449;SDS011;67758;39.572;2.652;2023-12-22T13:50:19;4.93;;;0.85;;
68449;SDS011;67758;39.572;2.652;2023-12-22T13:53:09;3.95;;;0.90;;
68449;SDS011;67758;39.572;2.652;2023-12-22T13:55:58;8.23;;;1.10;;
68449;SDS011;67758;39.572;2.652;2023-12-22T13:58:47;8.05;;;1.45;;
68449;SDS011;67758;39.572;2.652;2023-12-22T14:01:33;10.07;;;1.75;;
68449;SDS011;67758;39.572;2.652;2023-12-22T14:04:23;6.68;;;1.10;;
68449;SDS011;67758;39.572;2.652;2023-12-22T14:07:10;6.63;;;1.10;;
68449;SDS011;67758;39.572;2.652;2023-12-22T14:10:07;9.77;;;2.17;;
68449;SDS011;67758;39.572;2.652;2023-12-22T14:13:08;7.70;;;1.73;;
68449;SDS011;67758;39.572;2.652;2023-12-22T14:15:52;8.43;;;1.60;;
68449;SDS011;67758;39.572;2.652;2023-12-22T14:18:41;8.55;;;1.42;;
68449;SDS011;67758;39.572;2.652;2023-12-22T14:21:32;10.20;;;1.83;;
68449;SDS011;67758;39.572;2.652;2023-12-22T14:24:25;7.97;;;1.73;;
68449;SDS011;67758;39.572;2.652;2023-12-22T14:27:11;6.45;;;1.52;;
68449;SDS011;67758;39.572;2.652;2023-12-22T14:30:21;12.45;;;2.45;;
68449;SDS011;67758;39.572;2.652;2023-12-22T14:33:12;5.38;;;1.00;;
68449;SDS011;67758;39.572;2.652;2023-12-22T14:36:39;7.60;;;1.73;;
68449;SDS011;67758;39.572;2.652;2023-12-22T14:39:29;6.95;;;1.60;;
68449;SDS011;67758;39.572;2.652;2023-12-22T14:45:48;6.43;;;1.35;;
68449;SDS011;67758;39.572;2.652;2023-12-22T14:48:50;9.43;;;2.15;;
68449;SDS011;67758;39.572;2.652;2023-12-22T14:51:39;6.50;;;1.25;;
68449;SDS011;67758;39.572;2.652;2023-12-22T14:54:25;7.70;;;1.67;;
68449;SDS011;67758;39.572;2.652;2023-12-22T14:57:11;8.02;;;1.50;;
68449;SDS011;67758;39.572;2.652;2023-12-22T15:00:08;6.05;;;1.38;;
68449;SDS011;67758;39.572;2.652;2023-12-22T15:02:53;7.40;;;2.08;;
68449;SDS011;67758;39.572;2.652;2023-12-22T15:05:40;7.53;;;2.13;;
68449;SDS011;67758;39.572;2.652;2023-12-22T15:08:29;6.70;;;1.67;;
68449;SDS011;67758;39.572;2.652;2023-12-22T15:11:17;5.65;;;0.90;;
68449;SDS011;67758;39.572;2.652;2023-12-22T15:14:03;7.35;;;1.08;;
68449;SDS011;67758;39.572;2.652;2023-12-22T15:16:47;5.45;;;1.00;;
68449;SDS011;67758;39.572;2.652;2023-12-22T15:19:35;5.82;;;1.00;;
68449;SDS011;67758;39.572;2.652;2023-12-22T15:22:28;5.80;;;0.82;;
68449;SDS011;67758;39.572;2.652;2023-12-22T15:25:13;5.35;;;0.70;;
68449;SDS011;67758;39.572;2.652;2023-12-22T15:28:00;4.40;;;0.75;;
68449;SDS011;67758;39.572;2.652;2023-12-22T15:30:44;4.60;;;0.70;;
68449;SDS011;67758;39.572;2.652;2023-12-22T15:33:31;4.60;;;0.63;;
68449;SDS011;67758;39.572;2.652;2023-12-22T15:36:20;6.25;;;0.80;;
68449;SDS011;67758;39.572;2.652;2023-12-22T15:39:12;5.88;;;0.80;;
68449;SDS011;67758;39.572;2.652;2023-12-22T15:42:07;7.20;;;1.50;;
68449;SDS011;67758;39.572;2.652;2023-12-22T15:44:56;6.10;;;0.77;;
68449;SDS011;67758;39.572;2.652;2023-12-22T15:47:41;3.53;;;0.50;;
68449;SDS011;67758;39.572;2.652;2023-12-22T15:50:26;3.70;;;0.40;;
68449;SDS011;67758;39.572;2.652;2023-12-22T15:53:13;6.40;;;0.82;;
68449;SDS011;67758;39.572;2.652;2023-12-22T15:56:02;4.20;;;0.40;;
68449;SDS011;67758;39.572;2.652;2023-12-22T15:58:50;3.55;;;0.30;;
68449;SDS011;67758;39.572;2.652;2023-12-22T16:01:45;8.40;;;0.70;;
68449;SDS011;67758;39.572;2.652;2023-12-22T16:04:31;4.68;;;0.43;;
68449;SDS011;67758;39.572;2.652;2023-12-22T16:07:17;4.68;;;0.60;;
68449;SDS011;67758;39.572;2.652;2023-12-22T16:10:07;5.68;;;0.68;;
68449;SDS011;67758;39.572;2.652;2023-12-22T16:12:57;5.57;;;0.68;;
68449;SDS011;67758;39.572;2.652;2023-12-22T16:15:44;2.65;;;0.30;;
68449;SDS011;67758;39.572;2.652;2023-12-22T16:18:30;6.63;;;1.38;;
68449;SDS011;67758;39.572;2.652;2023-12-22T16:21:20;9.85;;;0.93;;
68449;SDS011;67758;39.572;2.652;2023-12-22T16:24:05;4.18;;;0.47;;
68449;SDS011;67758;39.572;2.652;2023-12-22T16:26:52;4.22;;;0.40;;
68449;SDS011;67758;39.572;2.652;2023-12-22T16:29:40;3.10;;;0.30;;
68449;SDS011;67758;39.572;2.652;2023-12-22T16:32:26;7.90;;;0.60;;
68449;SDS011;67758;39.572;2.652;2023-12-22T16:35:12;7.47;;;0.60;;
68449;SDS011;67758;39.572;2.652;2023-12-22T16:37:57;6.75;;;0.50;;
68449;SDS011;67758;39.572;2.652;2023-12-22T16:40:40;4.97;;;0.52;;
68449;SDS011;67758;39.572;2.652;2023-12-22T16:43:26;6.88;;;0.40;;
68449;SDS011;67758;39.572;2.652;2023-12-22T16:46:10;3.58;;;0.43;;
68449;SDS011;67758;39.572;2.652;2023-12-22T16:48:55;4.13;;;0.57;;
68449;SDS011;67758;39.572;2.652;2023-12-22T16:51:39;3.55;;;0.30;;
68449;SDS011;67758;39.572;2.652;2023-12-22T16:54:24;4.47;;;0.70;;
68449;SDS011;67758;39.572;2.652;2023-12-22T16:57:09;5.03;;;0.67;;
68449;SDS011;67758;39.572;2.652;2023-12-22T16:59:53;4.90;;;0.40;;
68449;SDS011;67758;39.572;2.652;2023-12-22T17:02:37;7.38;;;0.70;;
68449;SDS011;67758;39.572;2.652;2023-12-22T17:05:23;3.47;;;0.47;;
68449;SDS011;67758;39.572;2.652;2023-12-22T17:08:14;5.05;;;0.50;;
68449;SDS011;67758;39.572;2.652;2023-12-22T17:11:05;4.15;;;0.40;;
68449;SDS011;67758;39.572;2.652;2023-12-22T17:14:10;5.70;;;0.55;;
68449;SDS011;67758;39.572;2.652;2023-12-22T17:16:58;4.82;;;0.75;;
68449;SDS011;67758;39.572;2.652;2023-12-22T17:19:42;4.53;;;0.50;;
68449;SDS011;67758;39.572;2.652;2023-12-22T17:22:29;4.35;;;0.63;;
68449;SDS011;67758;39.572;2.652;2023-12-22T17:25:16;3.05;;;0.38;;
68449;SDS011;67758;39.572;2.652;2023-12-22T17:28:06;3.78;;;0.40;;
68449;SDS011;67758;39.572;2.652;2023-12-22T17:30:57;6.00;;;0.60;;
68449;SDS011;67758;39.572;2.652;2023-12-22T17:33:41;3.83;;;0.40;;
68449;SDS011;67758;39.572;2.652;2023-12-22T17:36:31;6.75;;;0.73;;
68449;SDS011;67758;39.572;2.652;2023-12-22T17:39:17;3.93;;;0.50;;
68449;SDS011;67758;39.572;2.652;2023-12-22T17:42:08;4.15;;;0.70;;
68449;SDS011;67758;39.572;2.652;2023-12-22T17:44:59;6.00;;;0.70;;
68449;SDS011;67758;39.572;2.652;2023-12-22T17:47:48;6.65;;;0.85;;
68449;SDS011;67758;39.572;2.652;2023-12-22T17:50:34;6.40;;;0.63;;
68449;SDS011;67758;39.572;2.652;2023-12-22T17:53:23;6.23;;;0.87;;